createdAt,value
2022-11-09T00:00:18.240Z,1.85
2022-11-09T00:02:44.704Z,1.70
2022-11-09T00:05:11.488Z,1.67
2022-11-09T00:07:37.916Z,1.85
2022-11-09T00:10:15.137Z,2.10
2022-11-09T00:12:43.772Z,1.75
2022-11-09T00:15:10.913Z,1.60
2022-11-09T00:17:37.488Z,1.10
2022-11-09T00:20:05.645Z,2.25
2022-11-09T00:22:32.057Z,1.80
2022-11-09T00:27:26.870Z,1.67
2022-11-09T00:29:53.289Z,2.25
2022-11-09T00:34:51.874Z,1.77
2022-11-09T00:37:18.383Z,2.45
2022-11-09T00:39:45.307Z,2.60
2022-11-09T00:42:11.826Z,1.88
2022-11-09T00:44:38.225Z,1.88
2022-11-09T00:49:31.009Z,2.00
2022-11-09T00:51:57.489Z,2.92
2022-11-09T00:54:24.971Z,1.70
2022-11-09T00:57:06.903Z,3.65
2022-11-09T00:59:33.411Z,3.30
2022-11-09T01:01:59.862Z,3.28
2022-11-09T01:04:28.491Z,2.60
2022-11-09T01:06:54.981Z,1.85
2022-11-09T01:09:21.483Z,1.80
2022-11-09T01:11:51.397Z,1.48
2022-11-09T01:14:17.863Z,1.50
2022-11-09T01:16:44.339Z,2.50
2022-11-09T01:19:14.283Z,1.70
2022-11-09T01:21:42.424Z,1.27
2022-11-09T01:24:10.022Z,1.65
2022-11-09T01:26:39.499Z,2.28
2022-11-09T01:29:08.660Z,2.58
2022-11-09T01:31:38.153Z,2.20
2022-11-09T01:34:12.420Z,2.35
2022-11-09T01:36:40.287Z,1.45
2022-11-09T01:39:06.764Z,1.42
2022-11-09T01:41:34.443Z,1.60
2022-11-09T01:44:16.921Z,2.03
2022-11-09T01:46:58.152Z,2.20
2022-11-09T01:49:52.932Z,2.40
2022-11-09T01:52:27.541Z,2.10
2022-11-09T01:55:09.985Z,2.95
2022-11-09T01:57:58.906Z,1.63
2022-11-09T02:00:27.636Z,1.98
2022-11-09T02:03:18.547Z,2.33
2022-11-09T02:06:30.526Z,2.95
2022-11-09T02:09:07.172Z,2.60
2022-11-09T02:11:36.242Z,1.48
2022-11-09T02:14:04.060Z,1.50
2022-11-09T02:16:31.372Z,2.10
2022-11-09T02:19:06.581Z,2.05
2022-11-09T02:21:35.756Z,2.72
2022-11-09T02:24:08.421Z,2.10
2022-11-09T02:29:17.460Z,2.20
2022-11-09T02:31:49.079Z,1.67
2022-11-09T02:34:19.092Z,1.85
2022-11-09T02:36:45.678Z,2.30
2022-11-09T02:39:14.784Z,1.45
2022-11-09T02:41:55.477Z,2.03
2022-11-09T02:44:25.840Z,2.50
2022-11-09T02:46:52.236Z,1.77
2022-11-09T02:51:49.527Z,1.33
2022-11-09T02:54:25.050Z,1.80
2022-11-09T02:56:54.240Z,2.10
2022-11-09T02:59:20.890Z,2.80
2022-11-09T03:01:47.284Z,1.52
2022-11-09T03:06:42.704Z,1.85
2022-11-09T03:09:13.038Z,2.60
2022-11-09T03:11:40.813Z,2.22
2022-11-09T03:14:14.012Z,2.53
2022-11-09T03:16:40.612Z,2.33
2022-11-09T03:19:07.896Z,2.22
2022-11-09T03:21:35.218Z,1.95
2022-11-09T03:24:02.021Z,2.33
2022-11-09T03:26:28.759Z,1.75
2022-11-09T03:28:55.334Z,2.33
2022-11-09T03:31:21.788Z,1.10
2022-11-09T03:33:48.436Z,1.55
2022-11-09T03:36:19.350Z,2.30
2022-11-09T03:41:36.662Z,2.30
2022-11-09T03:44:03.687Z,2.67
2022-11-09T03:46:36.238Z,2.30
2022-11-09T03:49:06.374Z,1.40
2022-11-09T03:51:33.675Z,1.70
2022-11-09T03:54:00.112Z,1.70
2022-11-09T03:56:26.514Z,1.67
2022-11-09T03:58:55.312Z,2.92
2022-11-09T04:01:21.881Z,1.65
2022-11-09T04:03:48.467Z,2.03
2022-11-09T04:06:14.933Z,2.88
2022-11-09T04:08:51.513Z,3.50
2022-11-09T04:11:19.464Z,2.45
2022-11-09T04:13:58.421Z,2.10
2022-11-09T04:18:54.336Z,1.73
2022-11-09T04:21:23.951Z,2.20
2022-11-09T04:23:50.749Z,2.45
2022-11-09T04:26:17.346Z,1.70
2022-11-09T04:28:43.794Z,1.80
2022-11-09T04:34:32.048Z,2.30
2022-11-09T04:36:58.529Z,1.67
2022-11-09T04:39:24.970Z,2.33
2022-11-09T04:41:53.681Z,2.13
2022-11-09T04:44:22.680Z,1.50
2022-11-09T04:46:49.070Z,2.70
2022-11-09T04:51:44.304Z,2.25
2022-11-09T04:54:14.078Z,1.67
2022-11-09T04:56:40.491Z,1.67
2022-11-09T05:01:35.939Z,1.45
2022-11-09T05:04:02.488Z,2.83
2022-11-09T05:06:34.425Z,3.28
2022-11-09T05:09:04.378Z,2.50
2022-11-09T05:11:31.589Z,2.85
2022-11-09T05:13:58.169Z,2.10
2022-11-09T05:16:24.989Z,2.97
2022-11-09T05:18:52.044Z,3.67
2022-11-09T05:24:15.417Z,1.70
2022-11-09T05:26:42.184Z,2.63
2022-11-09T05:31:52.449Z,2.42
2022-11-09T05:35:10.273Z,3.42
2022-11-09T05:40:44.263Z,2.83
2022-11-09T05:43:10.659Z,2.90
2022-11-09T05:48:30.843Z,1.98
2022-11-09T05:51:02.203Z,2.78
2022-11-09T05:53:28.765Z,2.97
2022-11-09T05:56:35.076Z,2.47
2022-11-09T05:59:01.529Z,2.70
2022-11-09T06:01:28.225Z,3.42
2022-11-09T06:03:57.028Z,3.45
2022-11-09T06:06:40.889Z,3.72
2022-11-09T06:09:07.629Z,3.50
2022-11-09T06:11:34.212Z,2.90
2022-11-09T06:14:05.450Z,3.17
2022-11-09T06:16:34.183Z,2.88
2022-11-09T06:19:03.670Z,4.25
2022-11-09T06:21:30.141Z,3.17
2022-11-09T06:24:01.862Z,3.58
2022-11-09T06:26:28.246Z,4.25
2022-11-09T06:31:23.488Z,2.50
2022-11-09T06:33:58.366Z,2.53
2022-11-09T06:36:24.884Z,2.60
2022-11-09T06:38:52.460Z,3.40
2022-11-09T06:41:21.829Z,3.85
2022-11-09T06:43:49.371Z,4.65
2022-11-09T06:46:37.544Z,4.20
2022-11-09T06:49:06.248Z,3.55
2022-11-09T06:51:35.791Z,2.78
2022-11-09T06:54:02.281Z,4.57
2022-11-09T06:56:28.952Z,4.53
2022-11-09T06:58:55.508Z,4.30
2022-11-09T07:01:27.348Z,4.18
2022-11-09T07:03:53.857Z,4.55
2022-11-09T07:06:20.427Z,3.80
2022-11-09T07:08:46.809Z,4.40
2022-11-09T07:14:05.895Z,6.43
2022-11-09T07:16:31.104Z,6.93
2022-11-09T07:18:58.422Z,5.22
2022-11-09T07:21:24.859Z,4.40
2022-11-09T07:23:52.090Z,5.72
2022-11-09T07:26:19.343Z,5.95
2022-11-09T07:28:45.729Z,5.65
2022-11-09T07:31:12.737Z,5.05
2022-11-09T07:33:43.167Z,6.63
2022-11-09T07:36:14.587Z,6.10
2022-11-09T07:38:47.041Z,5.97
2022-11-09T07:41:13.449Z,5.30
2022-11-09T07:43:40.458Z,4.00
2022-11-09T08:11:44.003Z,12.03
2022-11-09T08:14:17.797Z,14.52
2022-11-09T08:16:46.879Z,9.68
2022-11-09T08:19:13.466Z,11.27
2022-11-09T08:21:53.971Z,9.82
2022-11-09T08:24:20.380Z,11.07
2022-11-09T08:26:46.776Z,10.02
2022-11-09T08:29:20.687Z,11.25
2022-11-09T08:31:51.514Z,10.10
2022-11-09T08:34:18.249Z,9.77
2022-11-09T08:36:54.154Z,11.73
2022-11-09T08:39:23.075Z,11.57
2022-11-09T08:41:52.091Z,10.57
2022-11-09T08:44:18.567Z,10.10
2022-11-09T08:46:47.942Z,10.15
2022-11-09T08:49:15.314Z,10.70
2022-11-09T08:51:41.689Z,11.45
2022-11-09T08:56:35.463Z,10.05
2022-11-09T08:59:01.943Z,8.18
2022-11-09T09:01:28.587Z,11.32
2022-11-09T09:03:54.974Z,11.57
2022-11-09T09:08:57.831Z,10.52
2022-11-09T09:11:24.265Z,8.43
2022-11-09T09:13:50.689Z,9.85
2022-11-09T09:16:20.066Z,15.15
2022-11-09T09:18:50.107Z,11.35
2022-11-09T09:21:19.056Z,10.63
2022-11-09T09:23:55.338Z,11.73
2022-11-09T09:26:21.992Z,12.52
2022-11-09T09:28:53.865Z,13.88
2022-11-09T09:31:23.596Z,12.73
2022-11-09T09:33:50.199Z,12.10
2022-11-09T09:36:22.391Z,9.65
2022-11-09T09:38:53.166Z,15.00
2022-11-09T09:41:35.364Z,13.98
2022-11-09T09:44:34.794Z,14.30
2022-11-09T09:47:20.122Z,15.25
2022-11-09T09:53:22.636Z,13.73
2022-11-09T09:56:12.687Z,14.88
2022-11-09T09:58:45.956Z,14.30
2022-11-09T10:01:21.255Z,14.77
2022-11-09T10:03:59.404Z,11.82
2022-11-09T10:07:04.664Z,15.68
2022-11-09T10:09:52.709Z,16.02
2022-11-09T10:12:45.398Z,15.23
2022-11-09T10:15:36.504Z,10.88
2022-11-09T10:18:24.403Z,13.55
2022-11-09T10:21:09.682Z,14.35
2022-11-09T10:26:37.807Z,15.07
2022-11-09T10:29:26.034Z,12.75
2022-11-09T10:32:02.715Z,14.82
2022-11-09T10:34:55.666Z,13.25
2022-11-09T10:37:35.662Z,14.30
2022-11-09T10:40:11.971Z,14.30
2022-11-09T10:42:38.389Z,14.98
2022-11-09T10:45:36.053Z,15.10
2022-11-09T10:48:04.900Z,12.20
2022-11-09T10:50:56.945Z,14.07
2022-11-09T10:53:25.648Z,12.98
2022-11-09T10:55:56.669Z,15.48
2022-11-09T10:58:50.605Z,14.75
2022-11-09T11:01:37.171Z,13.80
2022-11-09T11:04:35.065Z,9.98
2022-11-09T11:09:43.370Z,12.82
2022-11-09T11:12:16.027Z,12.35
2022-11-09T11:14:46.539Z,12.50
2022-11-09T11:17:27.466Z,10.98
2022-11-09T11:20:26.417Z,13.32
2022-11-09T11:23:11.014Z,13.38
2022-11-09T11:25:52.790Z,14.50
2022-11-09T11:28:44.701Z,13.20
2022-11-09T11:31:16.808Z,13.32
2022-11-09T11:33:43.495Z,14.20
2022-11-09T11:36:43.277Z,14.52
2022-11-09T11:39:29.908Z,14.25
2022-11-09T11:42:07.076Z,14.57
2022-11-09T11:44:33.474Z,13.30
2022-11-09T11:47:20.621Z,12.00
2022-11-09T11:50:01.943Z,13.57
2022-11-09T11:52:34.247Z,15.45
2022-11-09T11:55:43.620Z,13.50
2022-11-09T11:58:33.187Z,13.40
2022-11-09T12:01:40.892Z,13.82
2022-11-09T12:04:35.689Z,14.18
2022-11-09T12:07:12.576Z,14.32
2022-11-09T12:09:51.988Z,15.55
2022-11-09T12:12:35.983Z,13.13
2022-11-09T12:15:21.503Z,15.40
2022-11-09T12:17:56.241Z,13.85
2022-11-09T12:20:34.210Z,14.00
2022-11-09T12:23:34.949Z,14.68
2022-11-09T12:26:30.876Z,13.23
2022-11-09T12:29:03.595Z,13.45
2022-11-09T12:32:03.592Z,13.02
2022-11-09T12:34:59.635Z,13.80
2022-11-09T12:37:35.649Z,10.75
2022-11-09T12:40:15.091Z,11.88
2022-11-09T12:42:53.793Z,10.05
2022-11-09T12:45:44.197Z,9.95
2022-11-09T12:48:25.502Z,10.35
2022-11-09T12:50:53.120Z,12.45
2022-11-09T12:53:27.333Z,9.38
2022-11-09T12:56:03.034Z,10.25
2022-11-09T12:58:33.426Z,11.02
2022-11-09T13:01:02.808Z,7.47
2022-11-09T13:03:32.584Z,12.02
2022-11-09T13:06:17.065Z,8.52
2022-11-09T13:08:59.679Z,8.93
2022-11-09T13:11:37.909Z,12.50
2022-11-09T13:14:22.548Z,11.40
2022-11-09T13:16:49.201Z,8.80
2022-11-09T13:19:34.015Z,12.32
2022-11-09T13:22:30.836Z,10.98
2022-11-09T13:25:37.822Z,8.98
2022-11-09T13:28:30.331Z,7.32
2022-11-09T13:30:59.424Z,11.93
2022-11-09T13:33:33.081Z,12.57
2022-11-09T13:36:14.846Z,8.95
2022-11-09T13:38:41.736Z,11.55
2022-11-09T13:41:40.928Z,11.77
2022-11-09T13:44:18.523Z,11.45
2022-11-09T13:46:48.389Z,10.05
2022-11-09T13:49:39.340Z,10.80
2022-11-09T13:52:43.876Z,10.68
2022-11-09T13:55:33.435Z,10.50
2022-11-09T13:58:04.953Z,11.02
2022-11-09T14:00:31.590Z,10.27
2022-11-09T14:03:06.627Z,12.55
2022-11-09T14:05:35.424Z,9.07
2022-11-09T14:08:03.949Z,7.60
2022-11-09T14:10:44.345Z,9.40
2022-11-09T14:13:36.785Z,11.13
2022-11-09T14:16:27.973Z,10.63
2022-11-09T14:19:00.432Z,9.93
2022-11-09T14:21:26.866Z,9.20
2022-11-09T14:23:54.192Z,12.07
2022-11-09T14:26:23.730Z,10.25
2022-11-09T14:57:18.018Z,10.43
2022-11-09T14:59:45.443Z,6.85
2022-11-09T15:02:17.388Z,8.43
2022-11-09T15:04:58.801Z,6.82
2022-11-09T15:07:29.358Z,5.07
2022-11-09T15:10:06.724Z,6.43
2022-11-09T15:12:34.595Z,5.65
2022-11-09T15:15:04.421Z,5.32
2022-11-09T15:17:40.152Z,4.78
2022-11-09T15:20:06.736Z,4.25
2022-11-09T15:22:48.869Z,3.65
2022-11-09T15:25:28.856Z,4.53
2022-11-09T15:28:04.477Z,4.00
2022-11-09T15:30:52.226Z,5.00
2022-11-09T15:33:21.490Z,4.35
2022-11-09T15:36:06.731Z,3.17
2022-11-09T15:38:37.088Z,3.58
2022-11-09T15:41:10.455Z,5.13
2022-11-09T15:43:37.952Z,3.35
2022-11-09T15:46:05.433Z,5.55
2022-11-09T15:48:32.999Z,6.60
2022-11-09T15:50:59.655Z,4.63
2022-11-09T15:53:26.430Z,3.42
2022-11-09T15:55:52.888Z,3.75
2022-11-09T15:58:20.091Z,3.05
2022-11-09T16:00:46.933Z,4.32
2022-11-09T16:03:13.533Z,3.60
2022-11-09T16:05:39.978Z,4.45
2022-11-09T16:08:09.459Z,4.97
2022-11-09T16:10:48.725Z,5.00
2022-11-09T16:13:15.095Z,4.57
2022-11-09T16:18:08.455Z,4.35
2022-11-09T16:20:35.035Z,3.85
2022-11-09T16:23:01.443Z,3.65
2022-11-09T16:25:28.866Z,2.42
2022-11-09T16:27:59.655Z,4.57
2022-11-09T16:30:26.217Z,5.70
2022-11-09T16:32:53.916Z,4.72
2022-11-09T16:35:27.112Z,3.90
2022-11-09T16:37:55.347Z,5.28
2022-11-09T16:40:24.964Z,13.55
2022-11-09T16:42:51.981Z,13.75
2022-11-09T16:45:19.908Z,6.00
2022-11-09T16:47:50.490Z,6.05
2022-11-09T16:50:17.574Z,5.95
2022-11-09T16:52:44.790Z,6.03
2022-11-09T16:55:11.362Z,5.47
2022-11-09T16:57:38.032Z,5.95
2022-11-09T17:00:08.340Z,6.75
2022-11-09T17:02:35.289Z,7.63
2022-11-09T17:05:01.836Z,6.05
2022-11-09T17:07:32.042Z,9.80
2022-11-09T17:09:58.613Z,7.50
2022-11-09T17:12:25.157Z,6.93
2022-11-09T17:14:51.618Z,5.15
2022-11-09T17:17:22.469Z,4.53
2022-11-09T17:19:50.141Z,5.38
2022-11-09T17:22:17.243Z,5.00
2022-11-09T17:24:43.725Z,4.60
2022-11-09T17:27:11.487Z,4.82
2022-11-09T17:29:39.028Z,4.93
2022-11-09T17:32:07.376Z,8.15
2022-11-09T17:34:40.613Z,4.90
2022-11-09T17:37:07.254Z,4.35
2022-11-09T17:39:33.863Z,3.42
2022-11-09T17:42:00.400Z,4.75
2022-11-09T17:44:31.082Z,4.55
2022-11-09T17:46:58.036Z,3.42
2022-11-09T17:49:24.499Z,3.78
2022-11-09T17:51:50.957Z,7.07
2022-11-09T17:54:20.655Z,5.07
2022-11-09T17:56:47.175Z,7.38
2022-11-09T17:59:13.660Z,4.82
2022-11-09T18:01:42.040Z,6.28
2022-11-09T18:04:11.039Z,4.70
2022-11-09T18:06:38.543Z,4.97
2022-11-09T18:11:52.768Z,8.20
2022-11-09T18:14:19.923Z,5.55
2022-11-09T18:16:49.833Z,6.85
2022-11-09T18:19:16.367Z,6.38
2022-11-09T18:21:45.310Z,6.45
2022-11-09T18:24:12.215Z,5.72
2022-11-09T18:26:38.746Z,8.32
2022-11-09T18:29:08.049Z,5.25
2022-11-09T18:31:34.553Z,6.63
2022-11-09T18:34:01.064Z,6.32
2022-11-09T18:36:27.956Z,6.07
2022-11-09T18:39:03.209Z,7.85
2022-11-09T18:41:30.924Z,6.65
2022-11-09T18:43:58.442Z,5.88
2022-11-09T18:46:30.095Z,5.63
2022-11-09T18:48:56.626Z,5.72
2022-11-09T18:51:24.801Z,7.00
2022-11-09T18:53:51.811Z,8.32
2022-11-09T18:56:24.531Z,8.23
2022-11-09T19:01:52.644Z,9.05
2022-11-09T19:04:19.510Z,6.68
2022-11-09T19:06:47.065Z,7.32
2022-11-09T19:09:35.548Z,8.13
2022-11-09T19:12:08.670Z,9.35
2022-11-09T19:14:44.103Z,8.88
2022-11-09T19:17:14.009Z,9.00
2022-11-09T19:19:43.252Z,8.57
2022-11-09T19:22:28.705Z,6.38
2022-11-09T19:24:55.946Z,8.82
2022-11-09T19:27:25.173Z,8.07
2022-11-09T19:29:55.555Z,7.53
2022-11-09T19:32:22.074Z,7.38
2022-11-09T19:34:54.313Z,7.65
2022-11-09T19:37:20.769Z,5.68
2022-11-09T19:39:47.843Z,6.30
2022-11-09T19:46:15.004Z,7.85
2022-11-09T19:48:45.962Z,7.97
2022-11-09T19:51:14.285Z,7.18
2022-11-09T19:53:43.912Z,7.60
2022-11-09T19:57:05.383Z,9.02
2022-11-09T19:59:31.919Z,7.32
2022-11-09T20:02:18.137Z,8.05
2022-11-09T20:05:26.196Z,9.45
2022-11-09T20:07:52.765Z,9.00
2022-11-09T20:10:19.262Z,8.65
2022-11-09T20:12:51.930Z,7.20
2022-11-09T20:17:48.196Z,5.88
2022-11-09T20:20:44.148Z,8.50
2022-11-09T20:23:19.036Z,6.82
2022-11-09T20:25:50.472Z,9.15
2022-11-09T20:28:23.767Z,9.30
2022-11-09T20:30:56.702Z,7.50
2022-11-09T20:33:24.411Z,9.77
2022-11-09T20:36:21.788Z,9.57
2022-11-09T20:38:53.566Z,11.07
2022-11-09T20:41:25.171Z,9.15
2022-11-09T20:44:36.683Z,11.00
2022-11-09T20:47:03.904Z,9.45
2022-11-09T20:49:36.390Z,11.52
2022-11-09T20:52:02.911Z,12.68
2022-11-09T20:54:35.338Z,11.02
2022-11-09T20:57:01.898Z,10.88
2022-11-09T20:59:28.927Z,10.63
2022-11-09T21:01:55.508Z,11.73
2022-11-09T21:04:28.450Z,12.27
2022-11-09T21:06:54.979Z,11.90
2022-11-09T21:09:25.532Z,12.32
2022-11-09T21:12:10.686Z,13.18
2022-11-09T21:14:39.467Z,12.77
2022-11-09T21:17:05.963Z,12.43
2022-11-09T21:19:33.018Z,11.20
2022-11-09T21:21:59.576Z,10.73
2022-11-09T21:24:44.746Z,9.27
2022-11-09T21:27:30.033Z,13.13
2022-11-09T21:32:23.992Z,8.98
2022-11-09T21:34:51.112Z,11.07
2022-11-09T21:37:18.206Z,10.60
2022-11-09T21:39:44.731Z,13.80
2022-11-09T21:42:12.088Z,12.90
2022-11-09T21:44:39.368Z,9.80
2022-11-09T21:47:07.123Z,12.50
2022-11-09T21:49:35.502Z,8.05
2022-11-09T21:52:02.530Z,9.40
2022-11-09T21:54:29.932Z,8.55
2022-11-09T21:56:59.002Z,8.15
2022-11-09T21:59:25.702Z,6.63
2022-11-09T22:01:53.030Z,8.43
2022-11-09T22:04:19.881Z,6.47
2022-11-09T22:06:47.588Z,8.00
2022-11-09T22:09:16.728Z,6.68
2022-11-09T22:12:03.756Z,7.28
2022-11-09T22:14:50.352Z,6.88
2022-11-09T22:17:16.991Z,5.97
2022-11-09T22:20:02.352Z,7.78
2022-11-09T22:24:57.032Z,5.57
2022-11-09T22:27:26.085Z,4.57
2022-11-09T22:29:52.661Z,6.80
2022-11-09T22:32:19.597Z,6.32
2022-11-09T22:34:46.124Z,5.50
2022-11-09T22:37:14.683Z,4.50
2022-11-09T22:39:47.326Z,4.68
2022-11-09T22:42:14.548Z,4.75
2022-11-09T22:44:43.407Z,5.57
2022-11-09T22:47:10.153Z,6.20
2022-11-09T22:49:36.924Z,6.13
2022-11-09T22:52:09.678Z,4.97
2022-11-09T22:57:02.654Z,5.22
2022-11-09T22:59:30.401Z,6.88
2022-11-09T23:01:57.079Z,6.80
2022-11-09T23:04:23.670Z,6.55
2022-11-09T23:06:52.952Z,5.93
2022-11-09T23:09:19.534Z,4.65
2022-11-09T23:11:51.659Z,5.47
2022-11-09T23:14:38.557Z,7.03
2022-11-09T23:17:25.083Z,5.50
2022-11-09T23:20:04.065Z,5.80
2022-11-09T23:25:15.821Z,4.30
2022-11-09T23:30:16.739Z,6.05
2022-11-09T23:32:43.357Z,5.25
2022-11-09T23:35:10.161Z,5.30
2022-11-09T23:37:36.880Z,4.30
2022-11-09T23:40:04.462Z,5.88
2022-11-09T23:42:30.952Z,5.40
2022-11-09T23:44:57.500Z,7.03
2022-11-09T23:47:39.114Z,7.10
2022-11-09T23:50:06.639Z,7.45
2022-11-09T23:52:39.796Z,7.30
2022-11-09T23:55:06.562Z,4.78
2022-11-09T23:57:33.101Z,6.38
2022-11-09T23:59:59.571Z,7.30
